sensor_id;sensor_type;location;lat;lon;timestamp;P1;durP1;ratioP1;P2;durP2;ratioP2
44143;SDS011;68165;51.920;4.492;2023-04-04T00:01:12;2.75;;;1.33;;
44143;SDS011;68165;51.920;4.492;2023-04-04T00:03:40;5.30;;;1.30;;
44143;SDS011;68165;51.920;4.492;2023-04-04T00:06:05;4.47;;;1.83;;
44143;SDS011;68165;51.920;4.492;2023-04-04T00:08:31;6.88;;;1.58;;
44143;SDS011;68165;51.920;4.492;2023-04-04T00:10:57;8.02;;;1.77;;
44143;SDS011;68165;51.920;4.492;2023-04-04T00:13:23;6.60;;;2.03;;
44143;SDS011;68165;51.920;4.492;2023-04-04T00:15:50;4.93;;;1.88;;
44143;SDS011;68165;51.920;4.492;2023-04-04T00:18:16;4.50;;;1.88;;
44143;SDS011;68165;51.920;4.492;2023-04-04T00:20:42;5.40;;;1.73;;
44143;SDS011;68165;51.920;4.492;2023-04-04T00:23:07;5.97;;;1.48;;
44143;SDS011;68165;51.920;4.492;2023-04-04T00:25:35;8.05;;;1.73;;
44143;SDS011;68165;51.920;4.492;2023-04-04T00:28:01;6.55;;;2.03;;
44143;SDS011;68165;51.920;4.492;2023-04-04T00:30:27;7.18;;;2.08;;
44143;SDS011;68165;51.920;4.492;2023-04-04T00:32:53;8.38;;;2.03;;
44143;SDS011;68165;51.920;4.492;2023-04-04T00:35:20;4.78;;;1.33;;
44143;SDS011;68165;51.920;4.492;2023-04-04T00:37:46;2.42;;;1.17;;
44143;SDS011;68165;51.920;4.492;2023-04-04T00:40:11;3.25;;;1.60;;
44143;SDS011;68165;51.920;4.492;2023-04-04T00:42:37;4.38;;;1.77;;
44143;SDS011;68165;51.920;4.492;2023-04-04T00:45:06;10.85;;;1.75;;
44143;SDS011;68165;51.920;4.492;2023-04-04T00:47:32;4.53;;;1.73;;
44143;SDS011;68165;51.920;4.492;2023-04-04T00:49:58;6.75;;;1.40;;
44143;SDS011;68165;51.920;4.492;2023-04-04T00:52:24;7.95;;;1.98;;
44143;SDS011;68165;51.920;4.492;2023-04-04T00:54:51;4.13;;;1.60;;
44143;SDS011;68165;51.920;4.492;2023-04-04T00:57:17;5.95;;;1.98;;
44143;SDS011;68165;51.920;4.492;2023-04-04T00:59:43;6.32;;;1.63;;
44143;SDS011;68165;51.920;4.492;2023-04-04T01:02:08;4.95;;;1.92;;
44143;SDS011;68165;51.920;4.492;2023-04-04T01:04:34;3.88;;;1.67;;
44143;SDS011;68165;51.920;4.492;2023-04-04T01:07:00;3.97;;;1.48;;
44143;SDS011;68165;51.920;4.492;2023-04-04T01:09:26;3.45;;;1.33;;
44143;SDS011;68165;51.920;4.492;2023-04-04T01:11:52;6.95;;;1.80;;
44143;SDS011;68165;51.920;4.492;2023-04-04T01:14:19;5.15;;;1.73;;
44143;SDS011;68165;51.920;4.492;2023-04-04T01:16:45;5.97;;;1.80;;
44143;SDS011;68165;51.920;4.492;2023-04-04T01:19:15;5.80;;;1.80;;
44143;SDS011;68165;51.920;4.492;2023-04-04T01:21:46;6.15;;;1.75;;
44143;SDS011;68165;51.920;4.492;2023-04-04T01:24:14;3.85;;;1.70;;
44143;SDS011;68165;51.920;4.492;2023-04-04T01:26:40;4.88;;;1.70;;
44143;SDS011;68165;51.920;4.492;2023-04-04T01:29:06;5.55;;;1.30;;
44143;SDS011;68165;51.920;4.492;2023-04-04T01:31:39;3.35;;;1.42;;
44143;SDS011;68165;51.920;4.492;2023-04-04T01:34:10;4.43;;;1.45;;
44143;SDS011;68165;51.920;4.492;2023-04-04T01:36:55;6.68;;;2.35;;
44143;SDS011;68165;51.920;4.492;2023-04-04T01:39:38;3.88;;;2.20;;
44143;SDS011;68165;51.920;4.492;2023-04-04T01:42:07;7.30;;;2.50;;
44143;SDS011;68165;51.920;4.492;2023-04-04T01:44:33;5.82;;;1.80;;
44143;SDS011;68165;51.920;4.492;2023-04-04T01:46:59;5.28;;;1.80;;
44143;SDS011;68165;51.920;4.492;2023-04-04T01:49:27;6.55;;;1.70;;
44143;SDS011;68165;51.920;4.492;2023-04-04T01:51:53;5.72;;;1.77;;
44143;SDS011;68165;51.920;4.492;2023-04-04T01:54:19;3.72;;;1.70;;
44143;SDS011;68165;51.920;4.492;2023-04-04T01:56:44;5.47;;;2.00;;
44143;SDS011;68165;51.920;4.492;2023-04-04T01:59:10;7.47;;;2.35;;
44143;SDS011;68165;51.920;4.492;2023-04-04T02:01:36;8.55;;;2.47;;
44143;SDS011;68165;51.920;4.492;2023-04-04T02:04:02;4.75;;;1.90;;
44143;SDS011;68165;51.920;4.492;2023-04-04T02:06:29;5.28;;;1.75;;
44143;SDS011;68165;51.920;4.492;2023-04-04T02:08:54;5.32;;;1.88;;
44143;SDS011;68165;51.920;4.492;2023-04-04T02:11:20;5.82;;;1.75;;
44143;SDS011;68165;51.920;4.492;2023-04-04T02:13:49;8.00;;;2.00;;
44143;SDS011;68165;51.920;4.492;2023-04-04T02:16:14;6.00;;;2.10;;
44143;SDS011;68165;51.920;4.492;2023-04-04T02:18:40;4.60;;;1.92;;
44143;SDS011;68165;51.920;4.492;2023-04-04T02:21:05;4.82;;;1.88;;
44143;SDS011;68165;51.920;4.492;2023-04-04T02:23:31;6.38;;;2.20;;
44143;SDS011;68165;51.920;4.492;2023-04-04T02:25:57;6.78;;;1.80;;
44143;SDS011;68165;51.920;4.492;2023-04-04T02:28:22;5.72;;;2.10;;
44143;SDS011;68165;51.920;4.492;2023-04-04T02:30:48;5.00;;;1.85;;
44143;SDS011;68165;51.920;4.492;2023-04-04T02:33:13;9.77;;;2.20;;
44143;SDS011;68165;51.920;4.492;2023-04-04T02:35:39;8.63;;;2.13;;
44143;SDS011;68165;51.920;4.492;2023-04-04T02:38:05;5.10;;;2.20;;
44143;SDS011;68165;51.920;4.492;2023-04-04T02:40:30;5.40;;;2.13;;
44143;SDS011;68165;51.920;4.492;2023-04-04T02:42:56;6.22;;;1.92;;
44143;SDS011;68165;51.920;4.492;2023-04-04T02:45:21;6.68;;;2.05;;
44143;SDS011;68165;51.920;4.492;2023-04-04T02:47:50;7.60;;;2.33;;
44143;SDS011;68165;51.920;4.492;2023-04-04T02:50:16;6.07;;;1.90;;
44143;SDS011;68165;51.920;4.492;2023-04-04T02:52:41;4.22;;;1.83;;
44143;SDS011;68165;51.920;4.492;2023-04-04T02:55:07;5.07;;;1.95;;
44143;SDS011;68165;51.920;4.492;2023-04-04T02:57:33;6.00;;;2.10;;
44143;SDS011;68165;51.920;4.492;2023-04-04T02:59:59;6.30;;;1.88;;
44143;SDS011;68165;51.920;4.492;2023-04-04T03:02:24;6.05;;;2.03;;
44143;SDS011;68165;51.920;4.492;2023-04-04T03:04:50;4.13;;;1.98;;
44143;SDS011;68165;51.920;4.492;2023-04-04T03:07:18;7.68;;;2.17;;
44143;SDS011;68165;51.920;4.492;2023-04-04T03:09:43;8.10;;;2.03;;
44143;SDS011;68165;51.920;4.492;2023-04-04T03:12:09;5.15;;;2.17;;
44143;SDS011;68165;51.920;4.492;2023-04-04T03:14:36;8.52;;;2.35;;
44143;SDS011;68165;51.920;4.492;2023-04-04T03:17:01;6.65;;;2.22;;
44143;SDS011;68165;51.920;4.492;2023-04-04T03:19:27;5.68;;;2.00;;
44143;SDS011;68165;51.920;4.492;2023-04-04T03:21:53;6.60;;;2.15;;
44143;SDS011;68165;51.920;4.492;2023-04-04T03:24:20;6.00;;;1.83;;
44143;SDS011;68165;51.920;4.492;2023-04-04T03:26:45;5.50;;;2.30;;
44143;SDS011;68165;51.920;4.492;2023-04-04T03:29:11;3.63;;;1.98;;
44143;SDS011;68165;51.920;4.492;2023-04-04T03:31:36;9.98;;;2.65;;
44143;SDS011;68165;51.920;4.492;2023-04-04T03:34:02;7.90;;;1.95;;
44143;SDS011;68165;51.920;4.492;2023-04-04T03:36:28;8.27;;;2.55;;
44143;SDS011;68165;51.920;4.492;2023-04-04T03:38:55;4.65;;;2.28;;
44143;SDS011;68165;51.920;4.492;2023-04-04T03:41:20;6.40;;;1.65;;
44143;SDS011;68165;51.920;4.492;2023-04-04T03:43:45;6.88;;;1.90;;
44143;SDS011;68165;51.920;4.492;2023-04-04T03:46:12;5.82;;;2.10;;
44143;SDS011;68165;51.920;4.492;2023-04-04T03:48:37;5.72;;;2.42;;
44143;SDS011;68165;51.920;4.492;2023-04-04T03:51:03;7.35;;;2.22;;
44143;SDS011;68165;51.920;4.492;2023-04-04T03:53:29;6.05;;;2.67;;
44143;SDS011;68165;51.920;4.492;2023-04-04T03:55:55;9.77;;;2.10;;
44143;SDS011;68165;51.920;4.492;2023-04-04T03:58:21;5.95;;;2.42;;
44143;SDS011;68165;51.920;4.492;2023-04-04T04:00:46;6.75;;;2.13;;
44143;SDS011;68165;51.920;4.492;2023-04-04T04:03:12;6.22;;;2.17;;
44143;SDS011;68165;51.920;4.492;2023-04-04T04:05:38;6.38;;;2.17;;
44143;SDS011;68165;51.920;4.492;2023-04-04T04:08:03;7.80;;;2.30;;
44143;SDS011;68165;51.920;4.492;2023-04-04T04:10:29;8.50;;;2.35;;
44143;SDS011;68165;51.920;4.492;2023-04-04T04:12:54;5.78;;;2.00;;
44143;SDS011;68165;51.920;4.492;2023-04-04T04:15:21;5.70;;;2.45;;
44143;SDS011;68165;51.920;4.492;2023-04-04T04:17:46;6.97;;;2.65;;
44143;SDS011;68165;51.920;4.492;2023-04-04T04:20:12;8.73;;;2.50;;
44143;SDS011;68165;51.920;4.492;2023-04-04T04:22:37;5.68;;;2.45;;
44143;SDS011;68165;51.920;4.492;2023-04-04T04:25:03;4.45;;;1.85;;
44143;SDS011;68165;51.920;4.492;2023-04-04T04:27:29;6.70;;;2.30;;
44143;SDS011;68165;51.920;4.492;2023-04-04T04:29:55;4.53;;;2.20;;
44143;SDS011;68165;51.920;4.492;2023-04-04T04:32:20;7.35;;;2.60;;
44143;SDS011;68165;51.920;4.492;2023-04-04T04:34:46;9.15;;;2.35;;
44143;SDS011;68165;51.920;4.492;2023-04-04T04:37:11;6.13;;;2.25;;
44143;SDS011;68165;51.920;4.492;2023-04-04T04:39:37;7.13;;;2.58;;
44143;SDS011;68165;51.920;4.492;2023-04-04T04:42:02;6.72;;;2.22;;
44143;SDS011;68165;51.920;4.492;2023-04-04T04:44:28;4.55;;;2.28;;
44143;SDS011;68165;51.920;4.492;2023-04-04T04:46:53;5.90;;;2.38;;
44143;SDS011;68165;51.920;4.492;2023-04-04T04:49:19;5.82;;;2.45;;
44143;SDS011;68165;51.920;4.492;2023-04-04T04:51:44;7.65;;;2.40;;
44143;SDS011;68165;51.920;4.492;2023-04-04T04:54:09;6.28;;;2.58;;
44143;SDS011;68165;51.920;4.492;2023-04-04T04:56:35;7.85;;;2.58;;
44143;SDS011;68165;51.920;4.492;2023-04-04T04:59:01;5.30;;;2.40;;
44143;SDS011;68165;51.920;4.492;2023-04-04T05:01:27;9.38;;;2.38;;
44143;SDS011;68165;51.920;4.492;2023-04-04T05:03:52;5.45;;;2.40;;
44143;SDS011;68165;51.920;4.492;2023-04-04T05:06:18;9.05;;;2.95;;
44143;SDS011;68165;51.920;4.492;2023-04-04T05:08:43;6.05;;;2.42;;
44143;SDS011;68165;51.920;4.492;2023-04-04T05:11:09;10.75;;;3.47;;
44143;SDS011;68165;51.920;4.492;2023-04-04T05:13:34;7.85;;;3.00;;
44143;SDS011;68165;51.920;4.492;2023-04-04T05:16:00;9.07;;;2.65;;
44143;SDS011;68165;51.920;4.492;2023-04-04T05:18:25;10.10;;;2.85;;
44143;SDS011;68165;51.920;4.492;2023-04-04T05:20:54;7.80;;;3.17;;
44143;SDS011;68165;51.920;4.492;2023-04-04T05:23:20;7.07;;;2.90;;
44143;SDS011;68165;51.920;4.492;2023-04-04T05:25:49;11.50;;;3.55;;
44143;SDS011;68165;51.920;4.492;2023-04-04T05:28:17;8.52;;;2.70;;
44143;SDS011;68165;51.920;4.492;2023-04-04T05:30:43;8.27;;;2.85;;
44143;SDS011;68165;51.920;4.492;2023-04-04T05:33:08;9.85;;;3.55;;
44143;SDS011;68165;51.920;4.492;2023-04-04T05:35:34;10.57;;;3.25;;
44143;SDS011;68165;51.920;4.492;2023-04-04T05:37:59;6.32;;;2.97;;
44143;SDS011;68165;51.920;4.492;2023-04-04T05:40:25;6.20;;;2.47;;
44143;SDS011;68165;51.920;4.492;2023-04-04T05:42:54;11.60;;;3.42;;
44143;SDS011;68165;51.920;4.492;2023-04-04T05:45:20;7.07;;;2.60;;
44143;SDS011;68165;51.920;4.492;2023-04-04T05:47:46;5.97;;;2.55;;
44143;SDS011;68165;51.920;4.492;2023-04-04T05:50:11;6.35;;;3.22;;
44143;SDS011;68165;51.920;4.492;2023-04-04T05:52:37;7.20;;;2.88;;
44143;SDS011;68165;51.920;4.492;2023-04-04T05:55:02;6.40;;;2.47;;
44143;SDS011;68165;51.920;4.492;2023-04-04T05:57:29;8.68;;;2.90;;
44143;SDS011;68165;51.920;4.492;2023-04-04T05:59:54;10.85;;;2.65;;
44143;SDS011;68165;51.920;4.492;2023-04-04T06:02:20;6.22;;;2.80;;
44143;SDS011;68165;51.920;4.492;2023-04-04T06:04:46;5.63;;;2.80;;
44143;SDS011;68165;51.920;4.492;2023-04-04T06:07:12;8.32;;;2.58;;
44143;SDS011;68165;51.920;4.492;2023-04-04T06:09:37;9.40;;;2.50;;
44143;SDS011;68165;51.920;4.492;2023-04-04T06:12:03;8.52;;;2.75;;
44143;SDS011;68165;51.920;4.492;2023-04-04T06:14:29;7.85;;;2.70;;
44143;SDS011;68165;51.920;4.492;2023-04-04T06:16:55;7.47;;;2.33;;
44143;SDS011;68165;51.920;4.492;2023-04-04T06:19:21;5.05;;;2.35;;
44143;SDS011;68165;51.920;4.492;2023-04-04T06:21:46;10.55;;;2.97;;
44143;SDS011;68165;51.920;4.492;2023-04-04T06:24:12;5.88;;;2.88;;
44143;SDS011;68165;51.920;4.492;2023-04-04T06:26:37;7.88;;;2.95;;
44143;SDS011;68165;51.920;4.492;2023-04-04T06:29:03;5.93;;;2.42;;
44143;SDS011;68165;51.920;4.492;2023-04-04T06:31:29;9.23;;;3.30;;
44143;SDS011;68165;51.920;4.492;2023-04-04T06:33:54;5.35;;;2.30;;
44143;SDS011;68165;51.920;4.492;2023-04-04T06:36:20;6.55;;;2.60;;
44143;SDS011;68165;51.920;4.492;2023-04-04T06:38:45;9.60;;;2.95;;
44143;SDS011;68165;51.920;4.492;2023-04-04T06:41:11;7.50;;;2.70;;
44143;SDS011;68165;51.920;4.492;2023-04-04T06:43:36;5.95;;;2.95;;
44143;SDS011;68165;51.920;4.492;2023-04-04T06:46:02;6.82;;;2.97;;
44143;SDS011;68165;51.920;4.492;2023-04-04T06:48:27;6.28;;;2.42;;
44143;SDS011;68165;51.920;4.492;2023-04-04T06:50:53;7.32;;;3.03;;
44143;SDS011;68165;51.920;4.492;2023-04-04T06:53:18;9.32;;;2.47;;
44143;SDS011;68165;51.920;4.492;2023-04-04T06:55:44;7.75;;;3.20;;
44143;SDS011;68165;51.920;4.492;2023-04-04T06:58:09;9.00;;;2.85;;
44143;SDS011;68165;51.920;4.492;2023-04-04T07:00:35;7.43;;;2.78;;
44143;SDS011;68165;51.920;4.492;2023-04-04T07:03:00;7.03;;;2.67;;
44143;SDS011;68165;51.920;4.492;2023-04-04T07:05:26;9.98;;;3.00;;
44143;SDS011;68165;51.920;4.492;2023-04-04T07:07:53;6.88;;;2.28;;
44143;SDS011;68165;51.920;4.492;2023-04-04T07:10:20;11.02;;;2.92;;
44143;SDS011;68165;51.920;4.492;2023-04-04T07:12:47;8.65;;;2.80;;
44143;SDS011;68165;51.920;4.492;2023-04-04T07:15:12;7.15;;;3.20;;
44143;SDS011;68165;51.920;4.492;2023-04-04T07:17:38;7.97;;;2.63;;
44143;SDS011;68165;51.920;4.492;2023-04-04T07:20:08;7.35;;;2.83;;
44143;SDS011;68165;51.920;4.492;2023-04-04T07:22:38;9.60;;;2.80;;
44143;SDS011;68165;51.920;4.492;2023-04-04T07:25:04;7.88;;;2.72;;
44143;SDS011;68165;51.920;4.492;2023-04-04T07:27:30;5.25;;;2.30;;
44143;SDS011;68165;51.920;4.492;2023-04-04T07:29:56;9.15;;;2.50;;
44143;SDS011;68165;51.920;4.492;2023-04-04T07:32:22;10.40;;;2.83;;
44143;SDS011;68165;51.920;4.492;2023-04-04T07:34:49;6.82;;;2.67;;
44143;SDS011;68165;51.920;4.492;2023-04-04T07:37:14;11.68;;;2.95;;
44143;SDS011;68165;51.920;4.492;2023-04-04T07:39:40;9.48;;;2.65;;
44143;SDS011;68165;51.920;4.492;2023-04-04T07:42:06;4.45;;;2.10;;
44143;SDS011;68165;51.920;4.492;2023-04-04T07:44:31;8.73;;;2.55;;
44143;SDS011;68165;51.920;4.492;2023-04-04T07:46:57;7.22;;;2.30;;
44143;SDS011;68165;51.920;4.492;2023-04-04T07:49:23;9.43;;;2.25;;
44143;SDS011;68165;51.920;4.492;2023-04-04T07:51:48;6.65;;;2.70;;
44143;SDS011;68165;51.920;4.492;2023-04-04T07:54:15;7.32;;;2.28;;
44143;SDS011;68165;51.920;4.492;2023-04-04T07:56:40;4.97;;;1.95;;
44143;SDS011;68165;51.920;4.492;2023-04-04T07:59:07;6.43;;;2.20;;
44143;SDS011;68165;51.920;4.492;2023-04-04T08:01:32;6.20;;;1.85;;
44143;SDS011;68165;51.920;4.492;2023-04-04T08:03:58;8.85;;;2.45;;
44143;SDS011;68165;51.920;4.492;2023-04-04T08:06:24;4.15;;;1.77;;
44143;SDS011;68165;51.920;4.492;2023-04-04T08:08:50;6.55;;;2.90;;
44143;SDS011;68165;51.920;4.492;2023-04-04T08:11:16;5.10;;;1.73;;
44143;SDS011;68165;51.920;4.492;2023-04-04T08:13:42;6.25;;;2.00;;
44143;SDS011;68165;51.920;4.492;2023-04-04T08:16:08;7.45;;;1.98;;
44143;SDS011;68165;51.920;4.492;2023-04-04T08:18:33;6.20;;;2.00;;
44143;SDS011;68165;51.920;4.492;2023-04-04T08:20:59;6.32;;;2.00;;
44143;SDS011;68165;51.920;4.492;2023-04-04T08:23:24;3.88;;;1.13;;
44143;SDS011;68165;51.920;4.492;2023-04-04T08:25:50;5.30;;;1.80;;
44143;SDS011;68165;51.920;4.492;2023-04-04T08:28:17;5.97;;;1.90;;
44143;SDS011;68165;51.920;4.492;2023-04-04T08:30:44;3.90;;;1.70;;
44143;SDS011;68165;51.920;4.492;2023-04-04T08:33:10;4.75;;;1.80;;
44143;SDS011;68165;51.920;4.492;2023-04-04T08:35:35;5.13;;;1.63;;
44143;SDS011;68165;51.920;4.492;2023-04-04T08:38:01;4.65;;;1.98;;
44143;SDS011;68165;51.920;4.492;2023-04-04T08:40:30;6.47;;;1.90;;
44143;SDS011;68165;51.920;4.492;2023-04-04T08:42:56;6.07;;;1.75;;
44143;SDS011;68165;51.920;4.492;2023-04-04T08:45:23;4.63;;;1.70;;
44143;SDS011;68165;51.920;4.492;2023-04-04T08:47:51;5.93;;;1.88;;
44143;SDS011;68165;51.920;4.492;2023-04-04T08:50:18;5.30;;;1.80;;
44143;SDS011;68165;51.920;4.492;2023-04-04T08:52:45;5.28;;;2.03;;
44143;SDS011;68165;51.920;4.492;2023-04-04T08:55:11;6.18;;;1.65;;
44143;SDS011;68165;51.920;4.492;2023-04-04T08:57:37;5.28;;;1.88;;
44143;SDS011;68165;51.920;4.492;2023-04-04T09:00:02;5.15;;;1.42;;
44143;SDS011;68165;51.920;4.492;2023-04-04T09:02:33;3.72;;;1.55;;
44143;SDS011;68165;51.920;4.492;2023-04-04T09:05:04;4.55;;;1.58;;
44143;SDS011;68165;51.920;4.492;2023-04-04T09:07:32;5.35;;;1.70;;
44143;SDS011;68165;51.920;4.492;2023-04-04T09:09:59;6.63;;;1.80;;
44143;SDS011;68165;51.920;4.492;2023-04-04T09:12:25;3.90;;;1.55;;
44143;SDS011;68165;51.920;4.492;2023-04-04T09:14:51;2.97;;;1.27;;
44143;SDS011;68165;51.920;4.492;2023-04-04T09:17:19;4.90;;;1.73;;
44143;SDS011;68165;51.920;4.492;2023-04-04T09:19:44;3.97;;;1.55;;
44143;SDS011;68165;51.920;4.492;2023-04-04T09:22:10;3.97;;;1.77;;
44143;SDS011;68165;51.920;4.492;2023-04-04T09:24:38;5.55;;;1.77;;
44143;SDS011;68165;51.920;4.492;2023-04-04T09:27:06;7.15;;;1.63;;
44143;SDS011;68165;51.920;4.492;2023-04-04T09:29:38;6.85;;;2.05;;
44143;SDS011;68165;51.920;4.492;2023-04-04T09:32:13;5.47;;;2.10;;
44143;SDS011;68165;51.920;4.492;2023-04-04T09:34:44;5.10;;;2.10;;
44143;SDS011;68165;51.920;4.492;2023-04-04T09:37:10;4.22;;;1.73;;
44143;SDS011;68165;51.920;4.492;2023-04-04T09:39:38;9.38;;;2.00;;
44143;SDS011;68165;51.920;4.492;2023-04-04T09:42:04;5.10;;;1.65;;
44143;SDS011;68165;51.920;4.492;2023-04-04T09:44:31;4.78;;;1.95;;
44143;SDS011;68165;51.920;4.492;2023-04-04T09:49:49;13.00;;;2.37;;
44143;SDS011;68165;51.920;4.492;2023-04-04T09:52:18;5.15;;;1.90;;
44143;SDS011;68165;51.920;4.492;2023-04-04T09:54:53;6.82;;;1.67;;
44143;SDS011;68165;51.920;4.492;2023-04-04T09:57:23;4.85;;;2.00;;
44143;SDS011;68165;51.920;4.492;2023-04-04T09:59:58;3.53;;;1.60;;
44143;SDS011;68165;51.920;4.492;2023-04-04T10:02:25;6.57;;;2.08;;
44143;SDS011;68165;51.920;4.492;2023-04-04T10:04:54;5.22;;;2.20;;
44143;SDS011;68165;51.920;4.492;2023-04-04T10:07:21;5.93;;;2.10;;
44143;SDS011;68165;51.920;4.492;2023-04-04T10:09:49;6.13;;;1.67;;
44143;SDS011;68165;51.920;4.492;2023-04-04T10:12:18;4.75;;;1.70;;
44143;SDS011;68165;51.920;4.492;2023-04-04T10:14:48;4.88;;;1.70;;
44143;SDS011;68165;51.920;4.492;2023-04-04T10:17:13;6.75;;;1.88;;
44143;SDS011;68165;51.920;4.492;2023-04-04T10:19:39;5.95;;;2.30;;
44143;SDS011;68165;51.920;4.492;2023-04-04T10:22:04;4.68;;;1.88;;
44143;SDS011;68165;51.920;4.492;2023-04-04T10:24:30;7.45;;;2.00;;
44143;SDS011;68165;51.920;4.492;2023-04-04T10:26:57;5.82;;;1.90;;
44143;SDS011;68165;51.920;4.492;2023-04-04T10:29:23;10.57;;;2.10;;
44143;SDS011;68165;51.920;4.492;2023-04-04T10:31:52;5.45;;;2.35;;
44143;SDS011;68165;51.920;4.492;2023-04-04T10:37:07;8.43;;;1.83;;
44143;SDS011;68165;51.920;4.492;2023-04-04T10:39:39;6.30;;;1.75;;
44143;SDS011;68165;51.920;4.492;2023-04-04T10:42:10;5.78;;;2.17;;
44143;SDS011;68165;51.920;4.492;2023-04-04T10:44:40;5.43;;;2.03;;
44143;SDS011;68165;51.920;4.492;2023-04-04T10:47:39;10.23;;;2.00;;
44143;SDS011;68165;51.920;4.492;2023-04-04T10:49:58;4.93;;;2.17;;
44143;SDS011;68165;51.920;4.492;2023-04-04T10:52:26;5.07;;;2.08;;
44143;SDS011;68165;51.920;4.492;2023-04-04T10:54:55;6.95;;;2.10;;
44143;SDS011;68165;51.920;4.492;2023-04-04T10:57:22;4.15;;;2.25;;
44143;SDS011;68165;51.920;4.492;2023-04-04T11:00:05;7.88;;;2.05;;
44143;SDS011;68165;51.920;4.492;2023-04-04T11:02:48;5.25;;;1.80;;
44143;SDS011;68165;51.920;4.492;2023-04-04T11:07:45;9.13;;;2.08;;
44143;SDS011;68165;51.920;4.492;2023-04-04T11:10:15;6.40;;;1.92;;
44143;SDS011;68165;51.920;4.492;2023-04-04T11:12:50;5.45;;;1.88;;
44143;SDS011;68165;51.920;4.492;2023-04-04T11:17:54;6.45;;;1.85;;
44143;SDS011;68165;51.920;4.492;2023-04-04T11:20:27;8.00;;;2.17;;
44143;SDS011;68165;51.920;4.492;2023-04-04T11:23:01;5.50;;;1.63;;
44143;SDS011;68165;51.920;4.492;2023-04-04T11:25:35;7.05;;;2.05;;
44143;SDS011;68165;51.920;4.492;2023-04-04T11:28:06;4.90;;;1.63;;
44143;SDS011;68165;51.920;4.492;2023-04-04T11:30:40;12.00;;;2.47;;
44143;SDS011;68165;51.920;4.492;2023-04-04T11:33:23;5.72;;;2.20;;
44143;SDS011;68165;51.920;4.492;2023-04-04T11:35:51;7.45;;;1.92;;
44143;SDS011;68165;51.920;4.492;2023-04-04T11:38:17;6.07;;;2.33;;
44143;SDS011;68165;51.920;4.492;2023-04-04T11:40:51;5.40;;;1.67;;
44143;SDS011;68165;51.920;4.492;2023-04-04T11:43:19;3.70;;;1.77;;
44143;SDS011;68165;51.920;4.492;2023-04-04T11:45:45;4.95;;;1.90;;
44143;SDS011;68165;51.920;4.492;2023-04-04T11:48:12;5.15;;;1.58;;
44143;SDS011;68165;51.920;4.492;2023-04-04T11:50:40;6.57;;;2.10;;
44143;SDS011;68165;51.920;4.492;2023-04-04T11:53:06;5.85;;;2.25;;
44143;SDS011;68165;51.920;4.492;2023-04-04T11:55:37;5.40;;;1.98;;
44143;SDS011;68165;51.920;4.492;2023-04-04T11:58:06;8.10;;;1.92;;
44143;SDS011;68165;51.920;4.492;2023-04-04T12:00:34;8.10;;;2.13;;
44143;SDS011;68165;51.920;4.492;2023-04-04T12:03:02;6.10;;;2.38;;
44143;SDS011;68165;51.920;4.492;2023-04-04T12:05:30;7.03;;;2.03;;
44143;SDS011;68165;51.920;4.492;2023-04-04T12:07:57;6.65;;;2.17;;
44143;SDS011;68165;51.920;4.492;2023-04-04T12:10:28;5.25;;;1.92;;
44143;SDS011;68165;51.920;4.492;2023-04-04T12:12:56;6.85;;;1.75;;
44143;SDS011;68165;51.920;4.492;2023-04-04T12:15:22;7.10;;;2.10;;
44143;SDS011;68165;51.920;4.492;2023-04-04T12:17:51;5.90;;;2.08;;
44143;SDS011;68165;51.920;4.492;2023-04-04T12:20:17;4.35;;;1.80;;
44143;SDS011;68165;51.920;4.492;2023-04-04T12:22:47;5.05;;;2.15;;
44143;SDS011;68165;51.920;4.492;2023-04-04T12:25:14;8.02;;;2.03;;
44143;SDS011;68165;51.920;4.492;2023-04-04T12:27:40;6.75;;;2.35;;
44143;SDS011;68165;51.920;4.492;2023-04-04T12:30:06;5.47;;;2.28;;
44143;SDS011;68165;51.920;4.492;2023-04-04T12:32:39;6.88;;;2.67;;
44143;SDS011;68165;51.920;4.492;2023-04-04T12:35:05;4.82;;;2.10;;
44143;SDS011;68165;51.920;4.492;2023-04-04T12:37:31;7.38;;;2.90;;
44143;SDS011;68165;51.920;4.492;2023-04-04T12:39:57;6.78;;;2.35;;
44143;SDS011;68165;51.920;4.492;2023-04-04T12:42:23;7.00;;;2.60;;
44143;SDS011;68165;51.920;4.492;2023-04-04T12:44:50;4.82;;;2.30;;
44143;SDS011;68165;51.920;4.492;2023-04-04T12:47:16;4.95;;;1.95;;
44143;SDS011;68165;51.920;4.492;2023-04-04T12:49:45;5.63;;;2.95;;
44143;SDS011;68165;51.920;4.492;2023-04-04T12:52:38;5.77;;;2.20;;
44143;SDS011;68165;51.920;4.492;2023-04-04T12:55:07;4.47;;;1.77;;
44143;SDS011;68165;51.920;4.492;2023-04-04T12:57:34;6.57;;;2.63;;
44143;SDS011;68165;51.920;4.492;2023-04-04T13:00:01;6.20;;;2.65;;
44143;SDS011;68165;51.920;4.492;2023-04-04T13:02:28;6.30;;;2.40;;
44143;SDS011;68165;51.920;4.492;2023-04-04T13:04:54;5.00;;;2.28;;
44143;SDS011;68165;51.920;4.492;2023-04-04T13:07:21;5.43;;;2.33;;
44143;SDS011;68165;51.920;4.492;2023-04-04T13:09:56;6.90;;;2.53;;
44143;SDS011;68165;51.920;4.492;2023-04-04T13:12:23;6.95;;;2.70;;
44143;SDS011;68165;51.920;4.492;2023-04-04T13:17:20;5.00;;;2.30;;
44143;SDS011;68165;51.920;4.492;2023-04-04T13:19:46;7.47;;;2.40;;
44143;SDS011;68165;51.920;4.492;2023-04-04T13:22:12;7.75;;;2.75;;
44143;SDS011;68165;51.920;4.492;2023-04-04T13:24:37;6.65;;;2.33;;
44143;SDS011;68165;51.920;4.492;2023-04-04T13:27:03;6.57;;;2.47;;
44143;SDS011;68165;51.920;4.492;2023-04-04T13:29:28;6.28;;;2.40;;
44143;SDS011;68165;51.920;4.492;2023-04-04T13:31:53;4.85;;;2.17;;
44143;SDS011;68165;51.920;4.492;2023-04-04T13:34:22;5.47;;;2.38;;
44143;SDS011;68165;51.920;4.492;2023-04-04T13:36:48;5.57;;;2.10;;
44143;SDS011;68165;51.920;4.492;2023-04-04T13:39:14;8.52;;;2.65;;
44143;SDS011;68165;51.920;4.492;2023-04-04T13:41:39;7.03;;;2.75;;
44143;SDS011;68165;51.920;4.492;2023-04-04T13:44:05;6.68;;;2.25;;
44143;SDS011;68165;51.920;4.492;2023-04-04T13:46:30;5.38;;;2.45;;
44143;SDS011;68165;51.920;4.492;2023-04-04T13:48:56;5.82;;;2.20;;
44143;SDS011;68165;51.920;4.492;2023-04-04T13:51:21;6.68;;;2.20;;
44143;SDS011;68165;51.920;4.492;2023-04-04T13:53:48;5.78;;;2.20;;
44143;SDS011;68165;51.920;4.492;2023-04-04T13:56:14;6.63;;;3.20;;
44143;SDS011;68165;51.920;4.492;2023-04-04T13:58:40;6.15;;;2.33;;
44143;SDS011;68165;51.920;4.492;2023-04-04T14:01:07;5.82;;;2.65;;
44143;SDS011;68165;51.920;4.492;2023-04-04T14:03:33;7.70;;;2.40;;
44143;SDS011;68165;51.920;4.492;2023-04-04T14:05:59;6.30;;;2.28;;
44143;SDS011;68165;51.920;4.492;2023-04-04T14:08:24;6.05;;;2.20;;
44143;SDS011;68165;51.920;4.492;2023-04-04T14:10:50;10.32;;;3.00;;
44143;SDS011;68165;51.920;4.492;2023-04-04T14:13:16;8.82;;;2.45;;
44143;SDS011;68165;51.920;4.492;2023-04-04T14:15:41;5.93;;;2.58;;
44143;SDS011;68165;51.920;4.492;2023-04-04T14:18:07;10.02;;;2.80;;
44143;SDS011;68165;51.920;4.492;2023-04-04T14:20:32;7.03;;;2.65;;
44143;SDS011;68165;51.920;4.492;2023-04-04T14:23:01;6.25;;;2.60;;
44143;SDS011;68165;51.920;4.492;2023-04-04T14:25:26;8.38;;;2.67;;
44143;SDS011;68165;51.920;4.492;2023-04-04T14:27:51;5.43;;;2.20;;
44143;SDS011;68165;51.920;4.492;2023-04-04T14:30:17;7.32;;;2.55;;
44143;SDS011;68165;51.920;4.492;2023-04-04T14:32:43;8.57;;;2.38;;
44143;SDS011;68165;51.920;4.492;2023-04-04T14:35:10;6.05;;;2.65;;
44143;SDS011;68165;51.920;4.492;2023-04-04T14:37:36;8.65;;;2.78;;
44143;SDS011;68165;51.920;4.492;2023-04-04T14:40:01;6.47;;;2.60;;
44143;SDS011;68165;51.920;4.492;2023-04-04T14:42:27;10.73;;;2.92;;
44143;SDS011;68165;51.920;4.492;2023-04-04T14:44:52;6.47;;;2.40;;
44143;SDS011;68165;51.920;4.492;2023-04-04T14:47:18;7.15;;;2.90;;
44143;SDS011;68165;51.920;4.492;2023-04-04T14:49:44;6.50;;;2.58;;
44143;SDS011;68165;51.920;4.492;2023-04-04T14:52:10;6.65;;;2.70;;
44143;SDS011;68165;51.920;4.492;2023-04-04T14:54:35;6.55;;;2.63;;
44143;SDS011;68165;51.920;4.492;2023-04-04T14:57:03;13.68;;;3.28;;
44143;SDS011;68165;51.920;4.492;2023-04-04T15:02:04;7.07;;;2.55;;